sensor_id;sensor_type;location;lat;lon;timestamp;pressure;altitude;pressure_sealevel;temperature;humidity
54308;BME280;40208;39.778;2.710;2022-12-18T00:02:27;102133.00;;;9.58;100.00
54308;BME280;40208;39.778;2.710;2022-12-18T00:05:12;102124.25;;;9.54;100.00
54308;BME280;40208;39.778;2.710;2022-12-18T00:07:57;102136.66;;;9.54;100.00
54308;BME280;40208;39.778;2.710;2022-12-18T00:10:42;102148.97;;;9.55;100.00
54308;BME280;40208;39.778;2.710;2022-12-18T00:13:27;102143.78;;;9.49;100.00
54308;BME280;40208;39.778;2.710;2022-12-18T00:16:13;102145.72;;;9.39;100.00
54308;BME280;40208;39.778;2.710;2022-12-18T00:18:59;102141.41;;;9.35;100.00
54308;BME280;40208;39.778;2.710;2022-12-18T00:21:44;102145.81;;;9.34;100.00
54308;BME280;40208;39.778;2.710;2022-12-18T00:24:29;102142.28;;;9.36;100.00
54308;BME280;40208;39.778;2.710;2022-12-18T00:27:14;102145.78;;;9.38;100.00
54308;BME280;40208;39.778;2.710;2022-12-18T00:29:58;102156.34;;;9.39;100.00
54308;BME280;40208;39.778;2.710;2022-12-18T00:32:43;102150.94;;;9.44;100.00
54308;BME280;40208;39.778;2.710;2022-12-18T00:35:28;102157.09;;;9.46;100.00
54308;BME280;40208;39.778;2.710;2022-12-18T00:38:13;102150.94;;;9.45;100.00
54308;BME280;40208;39.778;2.710;2022-12-18T00:40:58;102156.31;;;9.41;100.00
54308;BME280;40208;39.778;2.710;2022-12-18T00:43:43;102159.06;;;9.36;100.00
54308;BME280;40208;39.778;2.710;2022-12-18T00:46:28;102165.38;;;9.27;100.00
54308;BME280;40208;39.778;2.710;2022-12-18T00:49:13;102176.97;;;9.22;100.00
54308;BME280;40208;39.778;2.710;2022-12-18T00:51:57;102181.41;;;9.18;100.00
54308;BME280;40208;39.778;2.710;2022-12-18T00:54:42;102192.13;;;9.12;100.00
54308;BME280;40208;39.778;2.710;2022-12-18T00:57:27;102198.41;;;9.06;100.00
54308;BME280;40208;39.778;2.710;2022-12-18T01:00:13;102202.03;;;9.01;100.00
54308;BME280;40208;39.778;2.710;2022-12-18T01:02:58;102210.88;;;8.98;100.00
54308;BME280;40208;39.778;2.710;2022-12-18T01:05:43;102213.59;;;8.94;100.00
54308;BME280;40208;39.778;2.710;2022-12-18T01:08:28;102219.81;;;8.93;100.00
54308;BME280;40208;39.778;2.710;2022-12-18T01:11:14;102221.50;;;8.97;100.00
54308;BME280;40208;39.778;2.710;2022-12-18T01:13:59;102227.66;;;8.99;100.00
54308;BME280;40208;39.778;2.710;2022-12-18T01:16:44;102231.22;;;8.98;100.00
54308;BME280;40208;39.778;2.710;2022-12-18T01:19:29;102230.34;;;8.96;100.00
54308;BME280;40208;39.778;2.710;2022-12-18T01:22:13;102241.88;;;8.93;100.00
54308;BME280;40208;39.778;2.710;2022-12-18T01:24:58;102237.38;;;8.97;100.00
54308;BME280;40208;39.778;2.710;2022-12-18T01:27:43;102233.94;;;8.91;100.00
54308;BME280;40208;39.778;2.710;2022-12-18T01:30:28;102240.16;;;8.90;100.00
54308;BME280;40208;39.778;2.710;2022-12-18T01:33:13;102230.44;;;8.89;100.00
54308;BME280;40208;39.778;2.710;2022-12-18T01:35:58;102233.06;;;8.93;100.00
54308;BME280;40208;39.778;2.710;2022-12-18T01:38:43;102234.72;;;8.97;100.00
54308;BME280;40208;39.778;2.710;2022-12-18T01:41:28;102236.50;;;8.96;100.00
54308;BME280;40208;39.778;2.710;2022-12-18T01:50:43;102245.19;;;9.07;100.00
54308;BME280;40208;39.778;2.710;2022-12-18T01:53:28;102241.66;;;9.07;100.00
54308;BME280;40208;39.778;2.710;2022-12-18T01:56:13;102239.88;;;9.09;100.00
54308;BME280;40208;39.778;2.710;2022-12-18T01:59:03;102245.06;;;9.15;100.00
54308;BME280;40208;39.778;2.710;2022-12-18T02:01:49;102239.81;;;9.12;100.00
54308;BME280;40208;39.778;2.710;2022-12-18T02:04:34;102242.59;;;9.04;100.00
54308;BME280;40208;39.778;2.710;2022-12-18T02:19:16;102246.00;;;9.11;100.00
54308;BME280;40208;39.778;2.710;2022-12-18T02:27:34;102261.22;;;8.97;100.00
54308;BME280;40208;39.778;2.710;2022-12-18T02:30:21;102271.06;;;8.88;100.00
54308;BME280;40208;39.778;2.710;2022-12-18T02:33:06;102271.94;;;8.89;100.00
54308;BME280;40208;39.778;2.710;2022-12-18T02:35:53;102276.38;;;8.87;100.00
54308;BME280;40208;39.778;2.710;2022-12-18T02:38:39;102272.84;;;8.85;100.00
54308;BME280;40208;39.778;2.710;2022-12-18T02:41:23;102274.69;;;8.81;100.00
54308;BME280;40208;39.778;2.710;2022-12-18T02:44:09;102278.13;;;8.86;100.00
54308;BME280;40208;39.778;2.710;2022-12-18T02:46:55;102280.78;;;8.86;100.00
54308;BME280;40208;39.778;2.710;2022-12-18T02:49:44;102280.84;;;8.80;100.00
54308;BME280;40208;39.778;2.710;2022-12-18T02:52:39;102278.31;;;8.73;100.00
54308;BME280;40208;39.778;2.710;2022-12-18T03:01:09;102284.34;;;8.85;100.00
54308;BME280;40208;39.778;2.710;2022-12-18T03:04:04;102290.56;;;8.81;100.00
54308;BME280;40208;39.778;2.710;2022-12-18T03:06:54;102285.28;;;8.80;100.00
54308;BME280;40208;39.778;2.710;2022-12-18T03:09:41;102279.06;;;8.82;100.00
54308;BME280;40208;39.778;2.710;2022-12-18T03:12:32;102286.13;;;8.83;100.00
54308;BME280;40208;39.778;2.710;2022-12-18T03:15:21;102285.22;;;8.84;100.00
54308;BME280;40208;39.778;2.710;2022-12-18T03:18:10;102285.22;;;8.84;100.00
54308;BME280;40208;39.778;2.710;2022-12-18T03:20:55;102287.06;;;8.79;100.00
54308;BME280;40208;39.778;2.710;2022-12-18T03:23:44;102287.13;;;8.75;100.00
54308;BME280;40208;39.778;2.710;2022-12-18T03:26:30;102292.53;;;8.68;100.00
54308;BME280;40208;39.778;2.710;2022-12-18T03:29:17;102289.09;;;8.59;100.00
54308;BME280;40208;39.778;2.710;2022-12-18T03:32:17;102293.56;;;8.57;100.00
54308;BME280;40208;39.778;2.710;2022-12-18T03:35:05;102291.78;;;8.54;100.00
54308;BME280;40208;39.778;2.710;2022-12-18T03:37:50;102284.81;;;8.48;100.00
54308;BME280;40208;39.778;2.710;2022-12-18T03:40:40;102289.28;;;8.43;100.00
54308;BME280;40208;39.778;2.710;2022-12-18T03:43:41;102287.56;;;8.42;100.00
54308;BME280;40208;39.778;2.710;2022-12-18T03:46:30;102294.53;;;8.49;100.00
54308;BME280;40208;39.778;2.710;2022-12-18T03:54:47;102289.28;;;8.45;100.00
54308;BME280;40208;39.778;2.710;2022-12-18T03:57:32;102293.72;;;8.40;100.00
54308;BME280;40208;39.778;2.710;2022-12-18T04:00:18;102299.03;;;8.37;100.00
54308;BME280;40208;39.778;2.710;2022-12-18T04:03:03;102301.66;;;8.40;100.00
54308;BME280;40208;39.778;2.710;2022-12-18T04:05:48;102298.22;;;8.33;100.00
54308;BME280;40208;39.778;2.710;2022-12-18T04:08:35;102311.38;;;8.38;100.00
54308;BME280;40208;39.778;2.710;2022-12-18T04:11:19;102304.31;;;8.38;100.00
54308;BME280;40208;39.778;2.710;2022-12-18T04:14:04;102312.28;;;8.35;100.00
54308;BME280;40208;39.778;2.710;2022-12-18T04:16:49;102320.25;;;8.34;100.00
54308;BME280;40208;39.778;2.710;2022-12-18T04:19:34;102318.47;;;8.33;100.00
54308;BME280;40208;39.778;2.710;2022-12-18T04:22:19;102322.88;;;8.35;100.00
54308;BME280;40208;39.778;2.710;2022-12-18T04:25:04;102322.88;;;8.35;100.00
54308;BME280;40208;39.778;2.710;2022-12-18T04:27:49;102331.69;;;8.36;100.00
54308;BME280;40208;39.778;2.710;2022-12-18T04:30:34;102326.38;;;8.36;100.00
54308;BME280;40208;39.778;2.710;2022-12-18T04:33:19;102327.25;;;8.38;100.00
54308;BME280;40208;39.778;2.710;2022-12-18T04:36:04;102330.75;;;8.40;100.00
54308;BME280;40208;39.778;2.710;2022-12-18T04:38:49;102333.41;;;8.43;100.00
54308;BME280;40208;39.778;2.710;2022-12-18T04:41:34;102333.41;;;8.41;100.00
54308;BME280;40208;39.778;2.710;2022-12-18T04:44:19;102340.47;;;8.41;100.00
54308;BME280;40208;39.778;2.710;2022-12-18T04:47:03;102331.66;;;8.37;100.00
54308;BME280;40208;39.778;2.710;2022-12-18T04:49:48;102335.19;;;8.42;100.00
54308;BME280;40208;39.778;2.710;2022-12-18T04:52:33;102336.06;;;8.38;100.00
54308;BME280;40208;39.778;2.710;2022-12-18T04:55:18;102335.19;;;8.36;100.00
54308;BME280;40208;39.778;2.710;2022-12-18T04:58:04;102338.75;;;8.32;100.00
54308;BME280;40208;39.778;2.710;2022-12-18T05:00:49;102338.81;;;8.29;100.00
54308;BME280;40208;39.778;2.710;2022-12-18T05:03:35;102337.97;;;8.24;100.00
54308;BME280;40208;39.778;2.710;2022-12-18T05:06:19;102337.97;;;8.21;100.00
54308;BME280;40208;39.778;2.710;2022-12-18T05:09:04;102340.66;;;8.19;100.00
54308;BME280;40208;39.778;2.710;2022-12-18T05:11:49;102342.44;;;8.16;100.00
54308;BME280;40208;39.778;2.710;2022-12-18T05:14:34;102343.41;;;8.08;100.00
54308;BME280;40208;39.778;2.710;2022-12-18T05:17:19;102358.44;;;8.05;100.00
54308;BME280;40208;39.778;2.710;2022-12-18T05:20:04;102352.31;;;7.98;100.00
54308;BME280;40208;39.778;2.710;2022-12-18T05:22:50;102353.19;;;8.00;100.00
54308;BME280;40208;39.778;2.710;2022-12-18T05:25:35;102345.28;;;7.97;100.00
54308;BME280;40208;39.778;2.710;2022-12-18T05:28:20;102356.75;;;7.95;100.00
54308;BME280;40208;39.778;2.710;2022-12-18T05:31:05;102351.47;;;7.95;100.00
54308;BME280;40208;39.778;2.710;2022-12-18T05:33:50;102361.13;;;8.00;100.00
54308;BME280;40208;39.778;2.710;2022-12-18T05:36:35;102368.16;;;8.01;100.00
54308;BME280;40208;39.778;2.710;2022-12-18T05:39:20;102364.63;;;8.02;100.00
54308;BME280;40208;39.778;2.710;2022-12-18T05:42:05;102365.53;;;7.98;100.00
54308;BME280;40208;39.778;2.710;2022-12-18T05:44:50;102367.28;;;7.99;100.00
54308;BME280;40208;39.778;2.710;2022-12-18T05:47:35;102368.16;;;8.01;100.00
54308;BME280;40208;39.778;2.710;2022-12-18T05:50:19;102378.72;;;8.04;100.00
54308;BME280;40208;39.778;2.710;2022-12-18T05:53:05;102370.75;;;8.07;100.00
54308;BME280;40208;39.778;2.710;2022-12-18T05:55:50;102376.91;;;8.10;100.00
54308;BME280;40208;39.778;2.710;2022-12-18T05:58:35;102376.88;;;8.13;100.00
54308;BME280;40208;39.778;2.710;2022-12-18T06:01:22;102380.38;;;8.13;100.00
54308;BME280;40208;39.778;2.710;2022-12-18T06:04:07;102387.44;;;8.13;100.00
54308;BME280;40208;39.778;2.710;2022-12-18T06:06:52;102390.13;;;8.08;100.00
54308;BME280;40208;39.778;2.710;2022-12-18T06:09:37;102390.13;;;8.08;100.00
54308;BME280;40208;39.778;2.710;2022-12-18T06:12:21;102390.09;;;8.11;100.00
54308;BME280;40208;39.778;2.710;2022-12-18T06:15:06;102396.28;;;8.08;100.00
54308;BME280;40208;39.778;2.710;2022-12-18T06:17:51;102409.63;;;7.98;100.00
54308;BME280;40208;39.778;2.710;2022-12-18T06:20:36;102407.91;;;7.91;100.00
54308;BME280;40208;39.778;2.710;2022-12-18T06:23:23;102409.72;;;7.84;100.00
54308;BME280;40208;39.778;2.710;2022-12-18T06:26:09;102407.06;;;7.84;100.00
54308;BME280;40208;39.778;2.710;2022-12-18T06:28:54;102410.59;;;7.83;100.00
54308;BME280;40208;39.778;2.710;2022-12-18T06:31:39;102414.13;;;7.80;100.00
54308;BME280;40208;39.778;2.710;2022-12-18T06:34:24;102426.47;;;7.81;100.00
54308;BME280;40208;39.778;2.710;2022-12-18T06:37:09;102435.34;;;7.73;100.00
54308;BME280;40208;39.778;2.710;2022-12-18T06:39:53;102437.97;;;7.73;100.00
54308;BME280;40208;39.778;2.710;2022-12-18T06:42:38;102435.41;;;7.67;100.00
54308;BME280;40208;39.778;2.710;2022-12-18T06:45:23;102445.97;;;7.63;100.00
54308;BME280;40208;39.778;2.710;2022-12-18T06:48:08;102445.97;;;7.63;100.00
54308;BME280;40208;39.778;2.710;2022-12-18T06:50:53;102448.63;;;7.60;100.00
54308;BME280;40208;39.778;2.710;2022-12-18T06:53:38;102455.66;;;7.63;100.00
54308;BME280;40208;39.778;2.710;2022-12-18T06:56:23;102456.50;;;7.68;100.00
54308;BME280;40208;39.778;2.710;2022-12-18T06:59:08;102461.81;;;7.70;100.00
54308;BME280;40208;39.778;2.710;2022-12-18T07:01:53;102462.69;;;7.72;100.00
54308;BME280;40208;39.778;2.710;2022-12-18T07:04:38;102467.97;;;7.72;100.00
54308;BME280;40208;39.778;2.710;2022-12-18T07:07:23;102472.38;;;7.71;100.00
54308;BME280;40208;39.778;2.710;2022-12-18T07:10:08;102478.53;;;7.70;100.00
54308;BME280;40208;39.778;2.710;2022-12-18T07:12:52;102486.41;;;7.78;100.00
54308;BME280;40208;39.778;2.710;2022-12-18T07:15:37;102489.94;;;7.78;100.00
54308;BME280;40208;39.778;2.710;2022-12-18T07:18:22;102494.34;;;7.76;100.00
54308;BME280;40208;39.778;2.710;2022-12-18T07:21:08;102499.63;;;7.78;100.00
54308;BME280;40208;39.778;2.710;2022-12-18T07:23:53;102500.53;;;7.74;100.00
54308;BME280;40208;39.778;2.710;2022-12-18T07:26:39;102495.25;;;7.72;100.00
54308;BME280;40208;39.778;2.710;2022-12-18T07:29:24;102494.38;;;7.72;100.00
54308;BME280;40208;39.778;2.710;2022-12-18T07:32:09;102507.59;;;7.72;100.00
54308;BME280;40208;39.778;2.710;2022-12-18T07:34:54;102505.84;;;7.69;100.00
54308;BME280;40208;39.778;2.710;2022-12-18T07:37:39;102503.22;;;7.68;100.00
54308;BME280;40208;39.778;2.710;2022-12-18T07:40:24;102510.25;;;7.67;100.00
54308;BME280;40208;39.778;2.710;2022-12-18T07:43:09;102506.72;;;7.71;100.00
54308;BME280;40208;39.778;2.710;2022-12-18T07:45:54;102505.88;;;7.64;100.00
54308;BME280;40208;39.778;2.710;2022-12-18T07:48:42;102506.75;;;7.63;100.00
54308;BME280;40208;39.778;2.710;2022-12-18T07:51:27;102509.41;;;7.67;100.00
54308;BME280;40208;39.778;2.710;2022-12-18T07:54:12;102512.91;;;7.67;100.00
54308;BME280;40208;39.778;2.710;2022-12-18T07:56:57;102518.19;;;7.67;100.00
54308;BME280;40208;39.778;2.710;2022-12-18T07:59:42;102520.84;;;7.67;100.00
54308;BME280;40208;39.778;2.710;2022-12-18T08:02:29;102529.66;;;7.64;100.00
54308;BME280;40208;39.778;2.710;2022-12-18T08:05:14;102531.44;;;7.59;100.00
54308;BME280;40208;39.778;2.710;2022-12-18T08:07:59;102524.38;;;7.61;100.00
54308;BME280;40208;39.778;2.710;2022-12-18T08:10:44;102531.44;;;7.59;100.00
54308;BME280;40208;39.778;2.710;2022-12-18T08:13:29;102529.66;;;7.63;100.00
54308;BME280;40208;39.778;2.710;2022-12-18T08:16:14;102528.78;;;7.64;100.00
54308;BME280;40208;39.778;2.710;2022-12-18T08:18:59;102534.03;;;7.70;100.00
54308;BME280;40208;39.778;2.710;2022-12-18T08:21:44;102543.69;;;7.76;100.00
54308;BME280;40208;39.778;2.710;2022-12-18T08:24:30;102547.22;;;7.73;100.00
54308;BME280;40208;39.778;2.710;2022-12-18T08:27:15;102554.28;;;7.73;100.00
54308;BME280;40208;39.778;2.710;2022-12-18T08:30:01;102551.63;;;7.73;100.00
54308;BME280;40208;39.778;2.710;2022-12-18T08:32:50;102565.75;;;7.65;100.00
54308;BME280;40208;39.778;2.710;2022-12-18T08:35:35;102561.34;;;7.69;100.00
54308;BME280;40208;39.778;2.710;2022-12-18T08:38:27;102564.88;;;7.70;100.00
54308;BME280;40208;39.778;2.710;2022-12-18T08:41:25;102565.75;;;7.70;100.00
54308;BME280;40208;39.778;2.710;2022-12-18T08:44:09;102570.16;;;7.68;100.00
54308;BME280;40208;39.778;2.710;2022-12-18T08:47:13;102570.19;;;7.67;100.00
54308;BME280;40208;39.778;2.710;2022-12-18T08:49:58;102578.06;;;7.70;100.00
54308;BME280;40208;39.778;2.710;2022-12-18T08:52:43;102587.69;;;7.84;100.00
54308;BME280;40208;39.778;2.710;2022-12-18T08:55:27;102579.69;;;8.04;100.00
54308;BME280;40208;39.778;2.710;2022-12-18T08:58:11;102593.59;;;8.40;100.00
54308;BME280;40208;39.778;2.710;2022-12-18T09:01:03;102593.25;;;8.83;100.00
54308;BME280;40208;39.778;2.710;2022-12-18T09:03:48;102613.94;;;9.36;100.00
54308;BME280;40208;39.778;2.710;2022-12-18T09:06:33;102615.38;;;9.63;100.00
54308;BME280;40208;39.778;2.710;2022-12-18T09:09:17;102617.34;;;10.16;100.00
54308;BME280;40208;39.778;2.710;2022-12-18T09:12:02;102633.41;;;10.68;100.00
54308;BME280;40208;39.778;2.710;2022-12-18T09:14:46;102635.56;;;11.00;100.00
54308;BME280;40208;39.778;2.710;2022-12-18T09:17:31;102633.19;;;11.34;100.00
54308;BME280;40208;39.778;2.710;2022-12-18T09:20:16;102605.09;;;11.66;100.00
54308;BME280;40208;39.778;2.710;2022-12-18T09:23:00;102599.47;;;12.22;100.00
54308;BME280;40208;39.778;2.710;2022-12-18T09:25:44;102610.28;;;12.53;100.00
54308;BME280;40208;39.778;2.710;2022-12-18T09:28:29;102608.75;;;12.79;100.00
54308;BME280;40208;39.778;2.710;2022-12-18T09:31:14;102608.03;;;13.08;100.00
54308;BME280;40208;39.778;2.710;2022-12-18T09:33:59;102615.75;;;13.51;100.00
54308;BME280;40208;39.778;2.710;2022-12-18T09:36:43;102610.28;;;13.87;100.00
54308;BME280;40208;39.778;2.710;2022-12-18T09:39:29;102606.94;;;14.38;100.00
54308;BME280;40208;39.778;2.710;2022-12-18T09:42:22;102610.78;;;14.58;100.00
54308;BME280;40208;39.778;2.710;2022-12-18T09:45:07;102612.31;;;14.92;100.00
54308;BME280;40208;39.778;2.710;2022-12-18T09:47:56;102609.84;;;15.12;100.00
54308;BME280;40208;39.778;2.710;2022-12-18T09:50:41;102610.72;;;15.38;100.00
54308;BME280;40208;39.778;2.710;2022-12-18T09:53:28;102613.59;;;15.82;100.00
54308;BME280;40208;39.778;2.710;2022-12-18T09:56:16;102610.53;;;16.15;100.00
54308;BME280;40208;39.778;2.710;2022-12-18T09:59:03;102619.91;;;16.48;100.00
54308;BME280;40208;39.778;2.710;2022-12-18T10:01:48;102626.56;;;16.82;100.00
54308;BME280;40208;39.778;2.710;2022-12-18T10:04:32;102626.59;;;17.64;100.00
54308;BME280;40208;39.778;2.710;2022-12-18T10:13:18;102620.56;;;17.98;100.00
54308;BME280;40208;39.778;2.710;2022-12-18T10:16:11;102616.28;;;18.13;100.00
54308;BME280;40208;39.778;2.710;2022-12-18T10:19:01;102613.72;;;18.84;100.00
54308;BME280;40208;39.778;2.710;2022-12-18T10:21:55;102607.47;;;18.84;100.00
54308;BME280;40208;39.778;2.710;2022-12-18T10:24:44;102606.69;;;18.82;100.00
54308;BME280;40208;39.778;2.710;2022-12-18T10:27:32;102599.22;;;19.04;100.00
54308;BME280;40208;39.778;2.710;2022-12-18T10:30:19;102608.72;;;19.12;100.00
54308;BME280;40208;39.778;2.710;2022-12-18T10:33:04;102601.81;;;19.23;100.00
54308;BME280;40208;39.778;2.710;2022-12-18T10:35:51;102602.59;;;19.43;100.00
54308;BME280;40208;39.778;2.710;2022-12-18T10:38:36;102602.06;;;19.36;100.00
54308;BME280;40208;39.778;2.710;2022-12-18T10:44:10;102601.13;;;19.20;100.00
54308;BME280;40208;39.778;2.710;2022-12-18T10:47:02;102593.13;;;19.18;100.00
54308;BME280;40208;39.778;2.710;2022-12-18T10:49:49;102596.22;;;19.11;100.00
54308;BME280;40208;39.778;2.710;2022-12-18T10:52:34;102600.41;;;19.16;100.00
54308;BME280;40208;39.778;2.710;2022-12-18T10:55:19;102600.50;;;18.97;100.00
54308;BME280;40208;39.778;2.710;2022-12-18T11:01:16;102595.13;;;18.97;100.00
54308;BME280;40208;39.778;2.710;2022-12-18T11:04:02;102606.13;;;19.10;100.00
54308;BME280;40208;39.778;2.710;2022-12-18T11:07:04;102599.16;;;19.06;100.00
54308;BME280;40208;39.778;2.710;2022-12-18T11:09:59;102592.09;;;19.21;100.00
54308;BME280;40208;39.778;2.710;2022-12-18T11:12:44;102582.59;;;19.14;100.00
54308;BME280;40208;39.778;2.710;2022-12-18T11:15:29;102585.13;;;19.17;100.00
54308;BME280;40208;39.778;2.710;2022-12-18T11:18:19;102582.91;;;19.25;100.00
54308;BME280;40208;39.778;2.710;2022-12-18T11:21:08;102581.00;;;19.27;100.00
54308;BME280;40208;39.778;2.710;2022-12-18T11:23:53;102584.44;;;19.46;100.00
54308;BME280;40208;39.778;2.710;2022-12-18T11:26:38;102585.63;;;19.58;100.00
54308;BME280;40208;39.778;2.710;2022-12-18T11:29:27;102578.41;;;19.59;100.00
54308;BME280;40208;39.778;2.710;2022-12-18T11:32:29;102580.72;;;19.82;100.00
54308;BME280;40208;39.778;2.710;2022-12-18T11:38:06;102574.13;;;20.04;100.00
54308;BME280;40208;39.778;2.710;2022-12-18T11:41:03;102575.84;;;20.05;100.00
54308;BME280;40208;39.778;2.710;2022-12-18T11:43:53;102469.97;;;19.55;100.00
54308;BME280;40208;39.778;2.710;2022-12-18T11:46:45;102572.13;;;20.23;100.00
54308;BME280;40208;39.778;2.710;2022-12-18T11:49:34;102572.22;;;20.22;100.00
54308;BME280;40208;39.778;2.710;2022-12-18T11:52:24;102566.72;;;20.23;100.00
54308;BME280;40208;39.778;2.710;2022-12-18T11:55:14;102568.09;;;20.30;100.00
54308;BME280;40208;39.778;2.710;2022-12-18T11:58:07;102569.53;;;20.22;100.00
54308;BME280;40208;39.778;2.710;2022-12-18T12:09:34;102557.91;;;20.51;100.00
54308;BME280;40208;39.778;2.710;2022-12-18T12:17:59;102564.63;;;20.60;100.00
54308;BME280;40208;39.778;2.710;2022-12-18T12:20:51;102563.06;;;20.56;100.00
54308;BME280;40208;39.778;2.710;2022-12-18T12:38:16;102547.75;;;21.01;100.00
54308;BME280;40208;39.778;2.710;2022-12-18T12:41:05;102547.94;;;20.84;100.00
54308;BME280;40208;39.778;2.710;2022-12-18T12:47:22;102550.69;;;21.12;100.00
54308;BME280;40208;39.778;2.710;2022-12-18T12:50:20;102544.50;;;21.25;100.00
54308;BME280;40208;39.778;2.710;2022-12-18T12:53:06;102540.97;;;21.67;100.00
54308;BME280;40208;39.778;2.710;2022-12-18T12:55:54;102536.56;;;21.93;100.00
54308;BME280;40208;39.778;2.710;2022-12-18T12:58:43;102535.75;;;22.06;100.00
54308;BME280;40208;39.778;2.710;2022-12-18T13:04:23;102532.16;;;21.78;100.00
54308;BME280;40208;39.778;2.710;2022-12-18T13:13:11;102526.94;;;21.75;100.00
54308;BME280;40208;39.778;2.710;2022-12-18T13:16:06;102533.03;;;21.78;100.00
54308;BME280;40208;39.778;2.710;2022-12-18T13:18:52;102532.16;;;21.78;100.00
54308;BME280;40208;39.778;2.710;2022-12-18T13:21:37;102528.78;;;21.74;100.00
54308;BME280;40208;39.778;2.710;2022-12-18T13:24:24;102529.38;;;21.65;100.00
54308;BME280;40208;39.778;2.710;2022-12-18T13:27:44;102521.44;;;21.76;100.00
54308;BME280;40208;39.778;2.710;2022-12-18T13:39:20;102522.41;;;21.75;100.00
54308;BME280;40208;39.778;2.710;2022-12-18T13:44:50;102515.34;;;21.73;100.00
54308;BME280;40208;39.778;2.710;2022-12-18T13:47:36;102517.16;;;21.59;100.00
54308;BME280;40208;39.778;2.710;2022-12-18T13:50:25;102509.78;;;21.62;100.00
54308;BME280;40208;39.778;2.710;2022-12-18T13:53:21;102515.59;;;21.55;100.00
54308;BME280;40208;39.778;2.710;2022-12-18T13:56:07;102520.41;;;21.36;100.00
54308;BME280;40208;39.778;2.710;2022-12-18T14:04:37;102528.31;;;21.25;100.00
54308;BME280;40208;39.778;2.710;2022-12-18T14:07:23;102526.09;;;21.17;100.00
54308;BME280;40208;39.778;2.710;2022-12-18T14:10:12;102520.28;;;21.23;100.00
54308;BME280;40208;39.778;2.710;2022-12-18T14:13:03;102529.38;;;21.22;100.00
54308;BME280;40208;39.778;2.710;2022-12-18T14:15:50;102527.44;;;21.38;100.00
54308;BME280;40208;39.778;2.710;2022-12-18T14:18:45;102516.38;;;21.43;100.00
54308;BME280;40208;39.778;2.710;2022-12-18T14:21:30;102528.13;;;21.56;100.00
54308;BME280;40208;39.778;2.710;2022-12-18T14:24:18;102534.88;;;21.49;100.00
54308;BME280;40208;39.778;2.710;2022-12-18T14:27:23;102539.44;;;21.49;100.00
54308;BME280;40208;39.778;2.710;2022-12-18T14:38:38;102557.22;;;21.23;100.00
54308;BME280;40208;39.778;2.710;2022-12-18T14:41:24;102564.47;;;21.22;100.00
54308;BME280;40208;39.778;2.710;2022-12-18T14:44:10;102572.28;;;21.27;100.00
54308;BME280;40208;39.778;2.710;2022-12-18T14:46:57;102572.50;;;21.24;100.00
54308;BME280;40208;39.778;2.710;2022-12-18T14:49:44;102572.44;;;21.09;100.00
54308;BME280;40208;39.778;2.710;2022-12-18T14:52:29;102576.59;;;21.01;100.00
54308;BME280;40208;39.778;2.710;2022-12-18T14:55:17;102570.31;;;20.86;100.00
54308;BME280;40208;39.778;2.710;2022-12-18T14:58:03;102577.19;;;20.75;100.00
54308;BME280;40208;39.778;2.710;2022-12-18T15:00:49;102575.72;;;20.54;100.00
54308;BME280;40208;39.778;2.710;2022-12-18T15:03:35;102576.44;;;20.42;100.00
54308;BME280;40208;39.778;2.710;2022-12-18T15:06:31;102580.53;;;20.33;100.00
54308;BME280;40208;39.778;2.710;2022-12-18T15:09:24;102589.00;;;20.27;100.00
54308;BME280;40208;39.778;2.710;2022-12-18T15:12:28;102582.81;;;20.25;100.00
54308;BME280;40208;39.778;2.710;2022-12-18T15:18:30;102580.56;;;20.01;100.00
54308;BME280;40208;39.778;2.710;2022-12-18T15:21:18;102581.00;;;19.94;100.00
54308;BME280;40208;39.778;2.710;2022-12-18T15:24:04;102579.44;;;19.89;100.00
54308;BME280;40208;39.778;2.710;2022-12-18T15:26:49;102592.13;;;19.87;100.00
54308;BME280;40208;39.778;2.710;2022-12-18T15:29:35;102593.88;;;19.88;100.00
54308;BME280;40208;39.778;2.710;2022-12-18T15:32:20;102586.72;;;19.87;100.00
54308;BME280;40208;39.778;2.710;2022-12-18T15:35:22;102585.50;;;19.77;100.00
54308;BME280;40208;39.778;2.710;2022-12-18T15:38:08;102589.72;;;19.65;100.00
54308;BME280;40208;39.778;2.710;2022-12-18T15:40:53;102592.09;;;19.54;100.00
54308;BME280;40208;39.778;2.710;2022-12-18T15:43:38;102598.09;;;19.43;100.00
54308;BME280;40208;39.778;2.710;2022-12-18T15:46:24;102594.75;;;19.38;100.00
54308;BME280;40208;39.778;2.710;2022-12-18T15:49:09;102599.06;;;19.25;100.00
54308;BME280;40208;39.778;2.710;2022-12-18T15:51:55;102602.31;;;19.14;100.00
54308;BME280;40208;39.778;2.710;2022-12-18T15:54:41;102604.38;;;19.09;100.00
54308;BME280;40208;39.778;2.710;2022-12-18T15:57:46;102602.38;;;18.95;100.00
54308;BME280;40208;39.778;2.710;2022-12-18T16:00:32;102599.06;;;18.90;100.00
54308;BME280;40208;39.778;2.710;2022-12-18T16:03:18;102596.03;;;18.79;100.00
54308;BME280;40208;39.778;2.710;2022-12-18T16:06:04;102600.75;;;18.56;100.00
54308;BME280;40208;39.778;2.710;2022-12-18T16:08:50;102597.44;;;18.51;100.00
54308;BME280;40208;39.778;2.710;2022-12-18T16:11:36;102597.72;;;18.45;100.00
54308;BME280;40208;39.778;2.710;2022-12-18T16:14:23;102589.63;;;18.28;100.00
54308;BME280;40208;39.778;2.710;2022-12-18T16:17:10;102594.91;;;18.10;100.00
54308;BME280;40208;39.778;2.710;2022-12-18T16:19:57;102598.50;;;17.92;100.00
54308;BME280;40208;39.778;2.710;2022-12-18T16:22:43;102608.59;;;17.66;100.00
54308;BME280;40208;39.778;2.710;2022-12-18T16:25:32;102600.88;;;17.40;100.00
54308;BME280;40208;39.778;2.710;2022-12-18T16:28:18;102601.28;;;17.30;100.00